Time;durP1;ratioP1;P1;durP2;ratioP2;P2;SDS_P1;SDS_P2;PMS_P1;PMS_P2;Temp;Humidity;BMP_temperature;BMP_pressure;BME280_temperature;BME280_humidity;BME280_pressure;Samples;Min_cycle;Max_cycle;Signal;HPM_P1;HPM_P2
2021/11/15 00:01:02;;;;;;;92.27;26.00;;;5.90;97.30;;;;;;5036743;28;20925;-91
2021/11/15 00:03:30;;;;;;;93.57;24.73;;;5.90;97.30;;;;;;5037010;28;20414;-90
2021/11/15 00:06:12;;;;;;;93.93;31.33;;;5.90;97.30;;;;;;5036473;28;20435;-90
2021/11/15 00:08:41;;;;;;;83.30;23.80;;;5.90;97.30;;;;;;5035484;28;20442;-90
2021/11/15 00:11:09;;;;;;;91.10;23.40;;;5.90;97.30;;;;;;5034377;28;20961;-90
2021/11/15 00:13:42;;;;;;;97.47;24.27;;;5.90;97.30;;;;;;5034390;28;20442;-90
2021/11/15 00:16:10;;;;;;;88.77;26.57;;;5.90;97.30;;;;;;5035792;28;20454;-90
2021/11/15 00:18:39;;;;;;;102.50;25.70;;;5.90;97.30;;;;;;5035382;28;20419;-90
2021/11/15 00:21:13;;;;;;;87.40;26.47;;;5.90;97.30;;;;;;5035353;28;20422;-89
2021/11/15 00:23:41;;;;;;;99.33;25.10;;;5.90;97.30;;;;;;5035599;28;20853;-90
2021/11/15 00:26:09;;;;;;;99.50;25.53;;;5.90;97.30;;;;;;5036151;28;20442;-90
2021/11/15 00:28:42;;;;;;;109.20;25.53;;;5.80;97.30;;;;;;5036120;28;20421;-90
2021/11/15 00:31:10;;;;;;;99.43;26.53;;;5.80;97.30;;;;;;5036860;28;20902;-90
2021/11/15 00:33:39;;;;;;;98.80;26.43;;;5.80;97.30;;;;;;5036383;28;20446;-90
2021/11/15 00:36:12;;;;;;;108.43;25.77;;;5.80;97.30;;;;;;5035339;28;20435;-90
2021/11/15 00:38:40;;;;;;;97.33;27.03;;;5.80;97.30;;;;;;5034023;28;20411;-90
2021/11/15 00:41:09;;;;;;;103.23;29.17;;;5.80;97.30;;;;;;5035203;28;20469;-90
2021/11/15 00:43:42;;;;;;;111.83;27.73;;;5.80;97.30;;;;;;5034194;28;20415;-90
2021/11/15 00:46:10;;;;;;;104.00;29.93;;;5.80;97.30;;;;;;5035276;28;20446;-90
2021/11/15 00:49:00;;;;;;;98.67;26.13;;;5.80;97.30;;;;;;5034992;28;20419;-90
2021/11/15 00:52:09;;;;;;;94.80;26.50;;;5.80;97.30;;;;;;5035386;28;20454;-90
2021/11/15 00:54:42;;;;;;;87.40;26.20;;;5.70;97.30;;;;;;5034534;28;20503;-89
2021/11/15 00:57:10;;;;;;;91.97;25.50;;;5.70;97.30;;;;;;5036790;28;20512;-91
2021/11/15 00:59:58;;;;;;;97.40;28.73;;;5.70;97.30;;;;;;5036364;28;20414;-89
2021/11/15 01:02:29;;;;;;;91.20;26.30;;;5.70;97.30;;;;;;5031437;28;20893;-89
2021/11/15 01:05:00;;;;;;;96.97;28.00;;;5.70;97.30;;;;;;5034421;28;20487;-91
2021/11/15 01:07:29;;;;;;;107.07;28.90;;;5.70;97.30;;;;;;5034712;28;20419;-90
2021/11/15 01:10:52;;;;;;;97.20;28.20;;;5.70;97.30;;;;;;5034308;28;20422;-90
2021/11/15 01:13:21;;;;;;;91.80;26.10;;;5.70;97.30;;;;;;5035969;28;20415;-90
2021/11/15 01:15:50;;;;;;;91.47;27.30;;;5.60;97.30;;;;;;5034885;28;20447;-90
2021/11/15 01:18:49;;;;;;;79.03;25.83;;;5.60;97.30;;;;;;5035259;28;20489;-90
2021/11/15 01:21:25;;;;;;;94.00;26.03;;;5.60;97.30;;;;;;5030408;28;20949;-90
2021/11/15 01:23:51;;;;;;;82.70;26.30;;;5.60;97.30;;;;;;5037065;28;20403;-91
2021/11/15 01:26:19;;;;;;;99.20;29.80;;;5.60;97.30;;;;;;5039172;28;20431;-89
2021/11/15 01:28:52;;;;;;;92.93;26.07;;;5.60;97.30;;;;;;5040362;28;20422;-90
2021/11/15 01:31:21;;;;;;;89.03;27.43;;;5.60;97.30;;;;;;5039598;28;20427;-90
2021/11/15 01:33:50;;;;;;;97.10;25.90;;;5.60;97.30;;;;;;5038196;28;20446;-90
2021/11/15 01:36:32;;;;;;;93.00;25.37;;;5.60;97.30;;;;;;5037704;28;20455;-90
2021/11/15 01:39:02;;;;;;;87.07;27.70;;;5.60;97.30;;;;;;5037916;28;20411;-90
2021/11/15 01:41:41;;;;;;;94.80;26.70;;;5.60;97.30;;;;;;5038667;28;21188;-90
2021/11/15 01:44:09;;;;;;;97.00;27.07;;;5.60;97.30;;;;;;5038926;28;20411;-91
2021/11/15 01:46:42;;;;;;;92.23;27.30;;;5.60;97.30;;;;;;5038643;28;20446;-90
2021/11/15 01:49:11;;;;;;;88.33;27.20;;;5.60;97.30;;;;;;5038840;28;20437;-90
2021/11/15 01:51:39;;;;;;;107.10;29.70;;;5.60;97.30;;;;;;5040095;28;20426;-89
2021/11/15 01:54:13;;;;;;;92.70;25.87;;;5.50;97.30;;;;;;5039171;28;20427;-90
2021/11/15 01:56:41;;;;;;;88.63;27.97;;;5.50;97.30;;;;;;5039498;28;20552;-90
2021/11/15 01:59:10;;;;;;;87.07;28.90;;;5.50;97.30;;;;;;5038943;28;20415;-90
2021/11/15 02:01:38;;;;;;;86.00;27.23;;;5.50;97.30;;;;;;5037826;28;20432;-91
2021/11/15 02:04:11;;;;;;;89.13;27.70;;;5.50;97.30;;;;;;5037466;28;20465;-90
2021/11/15 02:06:40;;;;;;;110.07;30.00;;;5.50;97.30;;;;;;5037670;28;20516;-90
2021/11/15 02:09:09;;;;;;;112.30;34.07;;;5.40;97.30;;;;;;5036947;28;20430;-90
2021/11/15 02:11:58;;;;;;;117.90;32.00;;;5.40;97.30;;;;;;5038601;28;20803;-90
2021/11/15 02:14:31;;;;;;;108.57;30.17;;;5.40;97.30;;;;;;5037509;28;20451;-90
2021/11/15 02:17:00;;;;;;;110.77;31.57;;;5.40;97.30;;;;;;5039747;28;21035;-91
2021/11/15 02:19:38;;;;;;;105.33;31.90;;;5.30;97.30;;;;;;5038927;28;20416;-91
2021/11/15 02:22:12;;;;;;;110.40;30.17;;;5.40;97.30;;;;;;5039289;28;20450;-91
2021/11/15 02:24:40;;;;;;;109.10;31.50;;;5.30;97.30;;;;;;5038681;28;20875;-90
2021/11/15 02:27:11;;;;;;;99.87;31.07;;;5.30;97.30;;;;;;5038547;28;20415;-91
2021/11/15 02:29:39;;;;;;;101.50;29.60;;;5.30;97.30;;;;;;5038359;28;20415;-90
2021/11/15 02:32:13;;;;;;;112.80;30.47;;;5.30;97.30;;;;;;5036711;28;20425;-90
2021/11/15 02:34:41;;;;;;;100.77;29.23;;;5.30;97.30;;;;;;5037106;28;20465;-90
2021/11/15 02:37:09;;;;;;;114.10;32.90;;;5.30;97.30;;;;;;5036442;28;20534;-90
2021/11/15 02:39:39;;;;;;;113.67;32.00;;;5.30;97.30;;;;;;5037630;28;20898;-90
2021/11/15 02:42:12;;;;;;;99.23;27.07;;;5.30;97.30;;;;;;5037342;28;20427;-90
2021/11/15 02:44:39;;;;;;;114.10;33.80;;;5.30;97.30;;;;;;5038093;28;20900;-90
2021/11/15 02:47:12;;;;;;;105.37;29.73;;;5.30;97.30;;;;;;5037329;28;20500;-90
2021/11/15 02:49:40;;;;;;;116.33;32.93;;;5.30;97.30;;;;;;5039253;28;20430;-91
2021/11/15 02:52:20;;;;;;;120.73;32.03;;;5.30;97.30;;;;;;5038158;28;20412;-90
2021/11/15 02:54:57;;;;;;;110.63;28.13;;;5.30;97.30;;;;;;5038379;28;20451;-90
2021/11/15 02:57:41;;;;;;;108.90;30.53;;;5.30;97.30;;;;;;5036529;28;20467;-90
2021/11/15 03:00:41;;;;;;;102.20;29.63;;;5.30;97.30;;;;;;5037001;28;20415;-90
2021/11/15 03:03:32;;;;;;;110.73;30.00;;;5.30;97.30;;;;;;5028022;28;20419;-90
2021/11/15 03:06:02;;;;;;;98.80;28.77;;;5.30;97.30;;;;;;5036732;28;20431;-90
2021/11/15 03:08:32;;;;;;;98.40;30.93;;;5.30;97.30;;;;;;5036744;28;20430;-90
2021/11/15 03:11:03;;;;;;;112.57;30.67;;;5.30;97.30;;;;;;5037286;28;20419;-90
2021/11/15 03:13:49;;;;;;;110.70;31.03;;;5.30;97.30;;;;;;5036683;28;20510;-90
2021/11/15 03:16:31;;;;;;;103.60;28.87;;;5.30;97.30;;;;;;5037656;28;20475;-90
2021/11/15 03:18:59;;;;;;;109.53;30.67;;;5.30;97.30;;;;;;5037651;28;20435;-90
2021/11/15 03:21:32;;;;;;;105.50;27.93;;;5.30;97.30;;;;;;5038235;28;20431;-90
2021/11/15 03:24:00;;;;;;;117.53;31.47;;;5.30;97.30;;;;;;5038516;28;20897;-90
2021/11/15 03:26:29;;;;;;;110.60;32.63;;;5.30;97.30;;;;;;5035977;28;20497;-89
2021/11/15 03:29:11;;;;;;;101.00;29.00;;;5.30;97.30;;;;;;5035758;28;20471;-90
2021/11/15 03:31:39;;;;;;;108.63;30.00;;;5.30;97.30;;;;;;5037038;28;20481;-90
2021/11/15 03:34:13;;;;;;;88.73;26.70;;;5.30;97.30;;;;;;5036183;28;20419;-90
2021/11/15 03:36:43;;;;;;;109.43;30.07;;;5.30;97.30;;;;;;5036354;28;20520;-89
2021/11/15 03:39:12;;;;;;;124.50;31.60;;;5.30;97.30;;;;;;5037090;28;20790;-90
2021/11/15 03:41:42;;;;;;;100.13;28.83;;;5.30;97.30;;;;;;5037391;28;20445;-89
2021/11/15 03:44:11;;;;;;;91.17;27.37;;;5.30;97.30;;;;;;5037401;28;20406;-90
2021/11/15 03:46:41;;;;;;;115.73;28.27;;;5.30;97.30;;;;;;5037025;28;20439;-91
2021/11/15 03:49:14;;;;;;;87.93;28.63;;;5.30;97.30;;;;;;5037238;28;20452;-90
2021/11/15 03:51:41;;;;;;;136.10;33.63;;;5.20;97.30;;;;;;5037240;28;20411;-90
2021/11/15 03:54:10;;;;;;;105.43;29.97;;;5.20;97.30;;;;;;5036714;28;20465;-90
2021/11/15 03:56:43;;;;;;;110.20;29.60;;;5.20;97.30;;;;;;5034756;28;20937;-90
2021/11/15 03:59:11;;;;;;;116.97;28.50;;;5.20;97.30;;;;;;5035707;28;20411;-91
2021/11/15 04:01:42;;;;;;;123.20;29.77;;;5.20;97.30;;;;;;5035379;28;20416;-89
2021/11/15 04:04:17;;;;;;;110.97;29.27;;;5.20;97.30;;;;;;5035620;28;20407;-90
2021/11/15 04:06:53;;;;;;;110.93;27.40;;;5.20;97.30;;;;;;5036362;28;20434;-90
2021/11/15 04:09:21;;;;;;;106.70;28.87;;;5.20;97.30;;;;;;5036244;28;20439;-90
2021/11/15 04:12:03;;;;;;;108.30;30.03;;;5.20;97.30;;;;;;5037149;28;20492;-89
2021/11/15 04:14:32;;;;;;;111.70;29.20;;;5.20;97.30;;;;;;5036860;28;20411;-89
2021/11/15 04:17:00;;;;;;;99.90;28.03;;;5.20;97.30;;;;;;5037710;28;20459;-89
2021/11/15 04:19:31;;;;;;;103.33;26.90;;;5.20;97.30;;;;;;5036756;28;20474;-89
2021/11/15 04:22:00;;;;;;;107.37;29.43;;;5.20;97.30;;;;;;5036962;28;20415;-90
2021/11/15 04:24:31;;;;;;;131.67;28.90;;;5.20;97.30;;;;;;5034777;28;20420;-90
2021/11/15 04:27:00;;;;;;;119.77;29.70;;;5.20;97.30;;;;;;5035746;28;20411;-90
2021/11/15 04:29:29;;;;;;;105.13;27.00;;;5.20;97.30;;;;;;5034931;28;20423;-89
2021/11/15 04:32:13;;;;;;;116.13;25.50;;;5.20;97.30;;;;;;5036663;28;20510;-90
2021/11/15 04:34:41;;;;;;;109.07;30.60;;;5.20;97.30;;;;;;5035765;28;20481;-90
2021/11/15 04:37:09;;;;;;;109.13;29.80;;;5.20;97.30;;;;;;5035958;28;20534;-90
2021/11/15 04:43:03;;;;;;;106.53;29.00;;;5.20;97.30;;;;;;5034934;28;20411;-90
2021/11/15 04:45:31;;;;;;;110.80;28.90;;;5.20;97.30;;;;;;5036865;28;20783;-90
2021/11/15 04:48:01;;;;;;;121.77;29.40;;;5.20;97.30;;;;;;5037503;28;20477;-90
2021/11/15 04:50:30;;;;;;;92.13;27.83;;;5.20;97.30;;;;;;5036039;28;20454;-90
2021/11/15 04:53:13;;;;;;;93.63;27.30;;;5.20;97.30;;;;;;5035437;28;20423;-90
2021/11/15 04:55:41;;;;;;;98.37;28.70;;;5.20;97.30;;;;;;5035999;28;20477;-91
2021/11/15 04:58:10;;;;;;;111.63;27.10;;;5.20;97.30;;;;;;5035913;28;20474;-90
2021/11/15 05:00:43;;;;;;;113.33;29.47;;;5.20;97.30;;;;;;5040675;28;20510;-90
2021/11/15 05:03:13;;;;;;;95.13;27.50;;;5.20;97.30;;;;;;5040819;28;20403;-90
2021/11/15 05:05:42;;;;;;;87.27;26.30;;;5.20;97.30;;;;;;5041195;28;20433;-90
2021/11/15 05:08:10;;;;;;;105.17;29.27;;;5.20;97.30;;;;;;5041529;28;20777;-89
2021/11/15 05:10:49;;;;;;;105.73;31.07;;;5.20;97.30;;;;;;5042111;28;20483;-90
2021/11/15 05:13:20;;;;;;;112.00;29.20;;;5.30;97.30;;;;;;5041374;28;20454;-92
2021/11/15 05:19:21;;;;;;;98.97;26.20;;;5.20;97.30;;;;;;5032272;28;20427;-90
2021/11/15 05:21:50;;;;;;;100.33;28.60;;;5.20;97.30;;;;;;5041384;28;20784;-90
2021/11/15 05:24:22;;;;;;;108.17;27.83;;;5.20;97.30;;;;;;5041556;28;20891;-90
2021/11/15 05:26:50;;;;;;;114.00;27.93;;;5.20;97.30;;;;;;5041381;28;20928;-91
2021/11/15 05:29:33;;;;;;;111.40;28.03;;;5.20;97.30;;;;;;5040782;28;20426;-91
2021/11/15 05:32:02;;;;;;;105.50;27.60;;;5.20;97.30;;;;;;5040167;28;20413;-90
2021/11/15 05:34:31;;;;;;;99.23;27.13;;;5.20;97.30;;;;;;5041137;28;20407;-91
2021/11/15 05:37:14;;;;;;;98.70;29.40;;;5.20;97.30;;;;;;5048479;28;20567;-91
2021/11/15 05:39:40;;;;;;;96.27;25.63;;;5.20;97.30;;;;;;5061738;28;20875;-91
2021/11/15 05:42:23;;;;;;;97.83;27.87;;;5.20;97.30;;;;;;5061307;28;20577;-91
2021/11/15 05:44:53;;;;;;;97.30;27.50;;;5.20;97.30;;;;;;5060181;28;20287;-91
2021/11/15 05:47:21;;;;;;;90.10;27.00;;;5.20;97.30;;;;;;5058723;28;20448;-91
2021/11/15 05:49:51;;;;;;;94.07;28.23;;;5.20;97.30;;;;;;5059490;28;20415;-91
2021/11/15 05:52:22;;;;;;;106.93;29.20;;;5.20;97.30;;;;;;5058916;28;20548;-91
2021/11/15 05:54:52;;;;;;;116.70;28.23;;;5.20;97.30;;;;;;5060416;28;21007;-91
2021/11/15 05:57:20;;;;;;;95.13;27.57;;;5.20;97.30;;;;;;5059427;28;20454;-91
2021/11/15 05:59:53;;;;;;;83.17;25.17;;;5.20;97.30;;;;;;5060820;28;20415;-91
2021/11/15 06:02:22;;;;;;;84.23;26.40;;;5.20;97.30;;;;;;5059954;28;20820;-91
2021/11/15 06:04:50;;;;;;;89.43;24.70;;;5.20;97.30;;;;;;5060421;28;20781;-91
2021/11/15 06:07:23;;;;;;;85.43;26.93;;;5.20;97.30;;;;;;5060227;28;20437;-91
2021/11/15 06:09:52;;;;;;;103.17;30.53;;;5.20;97.30;;;;;;5060419;28;20407;-91
2021/11/15 06:12:20;;;;;;;91.43;27.23;;;5.20;97.30;;;;;;5058108;28;20422;-91
2021/11/15 06:14:53;;;;;;;94.37;27.40;;;5.20;97.30;;;;;;5058873;28;20799;-92
2021/11/15 06:17:22;;;;;;;99.27;26.37;;;5.20;97.30;;;;;;5059572;28;20453;-92
2021/11/15 06:19:50;;;;;;;84.40;25.30;;;5.20;97.30;;;;;;5059379;28;20549;-92
2021/11/15 06:22:41;;;;;;;81.63;27.03;;;5.20;97.30;;;;;;5060313;28;20416;-91
2021/11/15 06:25:23;;;;;;;116.63;27.10;;;5.20;97.30;;;;;;5048784;28;20460;-91
2021/11/15 06:27:52;;;;;;;97.50;26.77;;;5.20;97.30;;;;;;5060754;28;20391;-91
2021/11/15 06:30:20;;;;;;;102.10;28.70;;;5.20;97.30;;;;;;5060309;28;20418;-91
2021/11/15 06:32:54;;;;;;;92.37;25.37;;;5.20;97.30;;;;;;5060175;28;20414;-90
2021/11/15 06:35:23;;;;;;;96.63;29.77;;;5.20;97.30;;;;;;5060908;28;20430;-91
2021/11/15 06:37:51;;;;;;;79.50;25.63;;;5.20;97.30;;;;;;5059586;28;20838;-91
2021/11/15 06:40:34;;;;;;;96.83;25.80;;;5.20;97.30;;;;;;5058445;28;20912;-92
2021/11/15 06:43:00;;;;;;;86.20;27.60;;;5.20;97.30;;;;;;5057944;28;20509;-92
2021/11/15 06:45:30;;;;;;;90.27;27.37;;;5.20;97.30;;;;;;5040101;28;20489;-91
2021/11/15 06:47:56;;;;;;;89.50;28.67;;;5.20;97.30;;;;;;5036892;28;20181;-91
2021/11/15 06:50:22;;;;;;;97.23;25.20;;;5.20;97.30;;;;;;5038300;28;20419;-91
2021/11/15 06:52:52;;;;;;;101.27;27.77;;;5.20;97.30;;;;;;5038848;28;20423;-91
2021/11/15 06:55:22;;;;;;;91.10;25.97;;;5.20;97.30;;;;;;5039958;28;20479;-91
2021/11/15 06:57:51;;;;;;;82.10;26.50;;;5.20;97.30;;;;;;5039846;28;20451;-92
2021/11/15 07:00:22;;;;;;;84.07;25.73;;;5.20;97.30;;;;;;5039408;28;20416;-91
2021/11/15 07:02:51;;;;;;;87.77;25.87;;;5.30;97.30;;;;;;5038435;28;21008;-92
2021/11/15 07:05:34;;;;;;;87.63;24.97;;;5.30;97.30;;;;;;5037545;28;20443;-91
2021/11/15 07:08:03;;;;;;;84.37;24.80;;;5.30;97.30;;;;;;5038052;28;20441;-92
2021/11/15 07:10:34;;;;;;;92.60;27.27;;;5.30;97.30;;;;;;5037461;28;20850;-91
2021/11/15 07:13:02;;;;;;;88.40;26.93;;;5.30;97.30;;;;;;5038326;28;20429;-90
2021/11/15 07:15:31;;;;;;;76.47;22.67;;;5.30;97.30;;;;;;5038387;28;20523;-92
2021/11/15 07:18:21;;;;;;;84.67;27.27;;;5.30;97.30;;;;;;5038609;28;20494;-91
2021/11/15 07:20:50;;;;;;;77.37;22.23;;;5.30;97.30;;;;;;5030119;28;20479;-91
2021/11/15 07:23:23;;;;;;;89.83;26.93;;;5.30;97.30;;;;;;5038377;28;20454;-92
2021/11/15 07:25:54;;;;;;;90.83;26.20;;;5.30;97.30;;;;;;5039384;28;20445;-92
2021/11/15 07:28:22;;;;;;;78.40;22.73;;;5.40;97.30;;;;;;5039506;28;20408;-91
2021/11/15 07:30:55;;;;;;;86.20;28.60;;;5.40;97.30;;;;;;5037579;28;20420;-91
2021/11/15 07:33:33;;;;;;;86.70;26.00;;;5.40;97.30;;;;;;5037386;28;20411;-92
2021/11/15 07:36:02;;;;;;;83.97;24.37;;;5.40;97.30;;;;;;5037921;28;20453;-91
2021/11/15 07:38:30;;;;;;;77.90;25.70;;;5.40;97.30;;;;;;5037523;28;20993;-91
2021/11/15 07:41:01;;;;;;;82.13;24.10;;;5.40;97.30;;;;;;5037594;28;20415;-91
2021/11/15 07:43:52;;;;;;;81.67;25.43;;;5.40;97.30;;;;;;5038273;28;20455;-91
2021/11/15 07:46:21;;;;;;;81.67;22.57;;;5.40;97.30;;;;;;5029682;28;20436;-91
2021/11/15 07:48:53;;;;;;;85.07;24.53;;;5.50;97.30;;;;;;5038756;28;20442;-91
2021/11/15 07:51:21;;;;;;;71.20;21.10;;;5.50;97.30;;;;;;5038576;28;20426;-92
2021/11/15 07:53:54;;;;;;;82.23;23.80;;;5.50;97.30;;;;;;5038668;28;20418;-91
2021/11/15 07:56:23;;;;;;;89.20;24.97;;;5.50;97.30;;;;;;5037876;28;20563;-91
2021/11/15 07:58:51;;;;;;;79.63;24.27;;;5.50;97.30;;;;;;5037299;28;20445;-92
2021/11/15 08:01:24;;;;;;;74.27;21.90;;;5.50;97.30;;;;;;5036600;28;20418;-92
2021/11/15 08:03:52;;;;;;;77.90;22.13;;;5.50;97.30;;;;;;5036715;28;20487;-92
2021/11/15 08:06:21;;;;;;;69.63;21.20;;;5.50;97.30;;;;;;5036257;28;20466;-91
2021/11/15 08:08:53;;;;;;;78.13;23.60;;;5.60;97.30;;;;;;5037077;28;20419;-92
2021/11/15 08:11:31;;;;;;;61.63;19.87;;;5.60;97.30;;;;;;5037674;28;20765;-92
2021/11/15 08:14:10;;;;;;;76.93;22.33;;;5.60;97.30;;;;;;5037585;28;20415;-93
2021/11/15 08:16:52;;;;;;;62.07;20.50;;;5.60;97.30;;;;;;5037623;28;20454;-92
2021/11/15 08:19:21;;;;;;;71.70;23.30;;;5.60;97.30;;;;;;5039507;28;20898;-92
2021/11/15 08:22:10;;;;;;;57.67;18.20;;;5.60;97.30;;;;;;5039465;28;20407;-92
2021/11/15 08:24:40;;;;;;;65.93;20.20;;;5.60;97.30;;;;;;5038460;28;20408;-91
2021/11/15 08:27:09;;;;;;;60.03;21.80;;;5.60;97.30;;;;;;5036240;28;20426;-91
2021/11/15 08:29:43;;;;;;;50.37;18.87;;;5.70;97.30;;;;;;5036421;28;20415;-91
2021/11/15 08:32:43;;;;;;;63.50;20.53;;;5.70;97.30;;;;;;5036561;28;20411;-91
2021/11/15 08:35:02;;;;;;;71.03;20.27;;;5.70;97.30;;;;;;5038252;28;20447;-91
2021/11/15 08:37:30;;;;;;;55.77;19.50;;;5.70;97.30;;;;;;5040661;28;20533;-92
2021/11/15 08:40:02;;;;;;;56.40;18.50;;;5.70;97.30;;;;;;5041929;28;20423;-91
2021/11/15 08:42:30;;;;;;;57.63;19.23;;;5.70;97.30;;;;;;5040952;28;20461;-91
2021/11/15 08:45:05;;;;;;;55.70;18.60;;;5.70;97.30;;;;;;5042884;28;20430;-91
2021/11/15 08:47:33;;;;;;;59.30;19.30;;;5.80;97.30;;;;;;5042268;28;20414;-92
2021/11/15 08:50:02;;;;;;;55.40;18.10;;;5.80;97.30;;;;;;5042660;28;20447;-91
2021/11/15 08:52:30;;;;;;;49.43;16.90;;;5.80;97.30;;;;;;5042393;28;20469;-92
2021/11/15 08:55:13;;;;;;;52.87;17.80;;;5.80;97.30;;;;;;5040665;28;20508;-91
2021/11/15 08:57:42;;;;;;;47.17;17.07;;;5.80;97.30;;;;;;5039992;28;20480;-92
2021/11/15 09:00:10;;;;;;;56.47;18.17;;;5.80;97.30;;;;;;5037014;28;20416;-91
2021/11/15 09:02:44;;;;;;;53.60;16.47;;;5.80;97.30;;;;;;5036653;28;20420;-92
2021/11/15 09:05:10;;;;;;;57.17;18.47;;;5.80;97.30;;;;;;5036938;28;20996;-92
2021/11/15 09:07:44;;;;;;;48.40;16.77;;;5.90;97.30;;;;;;5037580;28;20423;-91
2021/11/15 09:10:13;;;;;;;57.67;20.23;;;5.80;97.30;;;;;;5037642;28;20791;-91
2021/11/15 09:12:43;;;;;;;55.80;18.43;;;5.90;97.30;;;;;;5021109;28;20427;-91
2021/11/15 09:15:14;;;;;;;55.77;18.53;;;5.90;97.30;;;;;;5038652;28;20443;-92
2021/11/15 09:17:50;;;;;;;44.77;16.93;;;5.90;97.30;;;;;;5038790;28;20471;-92
2021/11/15 09:20:25;;;;;;;51.33;19.30;;;5.90;97.30;;;;;;5038444;28;20427;-92
2021/11/15 09:22:52;;;;;;;50.53;17.87;;;5.90;97.30;;;;;;5039200;28;20415;-92
2021/11/15 09:25:20;;;;;;;53.37;19.00;;;5.90;97.30;;;;;;5037394;28;20440;-92
2021/11/15 09:27:54;;;;;;;46.57;15.90;;;6.00;97.30;;;;;;5037256;28;20427;-92
2021/11/15 09:30:23;;;;;;;52.97;18.37;;;6.00;97.30;;;;;;5036793;28;20416;-92
2021/11/15 09:32:51;;;;;;;49.67;18.07;;;6.00;97.30;;;;;;5036634;28;20424;-92
2021/11/15 09:35:20;;;;;;;48.40;16.80;;;6.00;97.30;;;;;;5036852;28;20446;-92
2021/11/15 09:37:53;;;;;;;49.13;18.80;;;6.00;97.30;;;;;;5037451;28;20494;-92
2021/11/15 09:40:23;;;;;;;53.87;17.57;;;6.00;97.30;;;;;;5037013;28;20420;-92
2021/11/15 09:43:02;;;;;;;52.17;17.33;;;6.00;97.30;;;;;;5037959;28;20420;-92
2021/11/15 09:45:30;;;;;;;49.03;17.77;;;6.00;97.30;;;;;;5036937;28;20821;-92
2021/11/15 09:48:04;;;;;;;52.00;16.37;;;6.00;97.30;;;;;;5038656;28;20420;-92
2021/11/15 09:50:32;;;;;;;45.20;15.30;;;6.10;97.30;;;;;;5037676;28;20938;-92
2021/11/15 09:53:01;;;;;;;50.30;16.47;;;6.10;97.30;;;;;;5037204;28;20428;-92
2021/11/15 09:55:50;;;;;;;58.37;19.10;;;6.10;97.30;;;;;;5035141;28;20479;-93
2021/11/15 09:58:23;;;;;;;46.67;18.67;;;6.10;97.30;;;;;;5010950;28;20475;-91
2021/11/15 10:00:52;;;;;;;63.00;19.80;;;6.10;97.30;;;;;;5036279;28;20427;-92
2021/11/15 10:03:21;;;;;;;47.10;18.53;;;6.10;97.30;;;;;;5036833;28;20478;-92
2021/11/15 10:05:51;;;;;;;55.63;18.60;;;6.10;97.30;;;;;;5021253;28;20490;-92
2021/11/15 10:08:24;;;;;;;47.13;18.30;;;6.10;97.30;;;;;;5037439;28;20412;-92
2021/11/15 10:11:00;;;;;;;50.37;17.23;;;6.10;97.30;;;;;;5021557;28;20400;-92
2021/11/15 10:17:20;;;;;;;54.67;19.40;;;6.10;97.30;;;;;;5014449;28;20468;-92
2021/11/15 10:20:04;;;;;;;62.30;19.50;;;6.10;97.30;;;;;;5018400;28;20911;-92
2021/11/15 10:22:33;;;;;;;51.93;17.87;;;6.10;97.30;;;;;;5036972;28;20423;-92
2021/11/15 10:25:01;;;;;;;49.77;17.80;;;6.10;97.30;;;;;;5020589;28;20496;-91
2021/11/15 10:27:30;;;;;;;60.20;20.70;;;6.10;97.30;;;;;;5036231;28;20508;-92
2021/11/15 10:30:13;;;;;;;52.47;17.90;;;6.20;97.30;;;;;;5036285;28;20424;-92
2021/11/15 10:32:50;;;;;;;50.67;19.63;;;6.20;97.30;;;;;;5036654;28;20452;-92
2021/11/15 10:35:21;;;;;;;49.30;18.27;;;6.20;97.30;;;;;;5036397;28;20452;-92
2021/11/15 10:37:51;;;;;;;45.77;15.37;;;6.20;97.30;;;;;;5036360;28;20484;-92
2021/11/15 10:40:44;;;;;;;54.60;18.50;;;6.20;97.30;;;;;;5037216;28;20475;-92
2021/11/15 10:43:12;;;;;;;57.10;19.47;;;6.20;97.30;;;;;;5038108;28;20510;-92
2021/11/15 10:45:40;;;;;;;50.73;17.53;;;6.20;97.30;;;;;;5037310;28;20490;-92
2021/11/15 10:48:17;;;;;;;57.77;20.73;;;6.30;97.30;;;;;;5038512;28;20431;-92
2021/11/15 10:51:02;;;;;;;64.07;19.80;;;6.30;97.30;;;;;;5021848;28;20392;-92
2021/11/15 10:53:56;;;;;;;56.27;18.47;;;6.30;97.30;;;;;;5035580;28;20412;-92
2021/11/15 10:56:38;;;;;;;51.03;17.37;;;6.40;97.30;;;;;;5018160;28;20476;-92
2021/11/15 10:59:31;;;;;;;51.03;17.53;;;6.40;97.30;;;;;;5035299;28;20432;-92
2021/11/15 11:02:19;;;;;;;43.67;17.67;;;6.40;97.30;;;;;;5035386;28;20422;-92
2021/11/15 11:05:12;;;;;;;58.87;21.07;;;6.40;97.30;;;;;;5019009;28;20817;-93
2021/11/15 11:08:01;;;;;;;47.77;18.03;;;6.40;97.30;;;;;;5035216;28;20931;-92
2021/11/15 11:10:39;;;;;;;52.17;19.07;;;6.40;97.30;;;;;;5033676;28;20447;-92
2021/11/15 11:13:12;;;;;;;62.20;17.20;;;6.40;97.30;;;;;;5039549;28;20921;-93
2021/11/15 11:15:53;;;;;;;54.83;18.17;;;6.40;97.30;;;;;;5039986;28;20474;-92
2021/11/15 11:18:42;;;;;;;53.97;17.63;;;6.40;97.30;;;;;;5038936;28;20442;-92
2021/11/15 11:24:33;;;;;;;50.50;16.43;;;6.40;97.30;;;;;;5038893;28;20411;-91
2021/11/15 11:27:04;;;;;;;59.00;18.87;;;6.40;97.30;;;;;;5038474;28;20407;-92
2021/11/15 11:29:53;;;;;;;43.33;18.40;;;6.40;97.30;;;;;;5022008;28;20399;-92
2021/11/15 11:32:31;;;;;;;62.43;19.60;;;6.40;97.30;;;;;;5022426;28;20426;-92
2021/11/15 11:35:23;;;;;;;58.97;19.50;;;6.40;97.30;;;;;;5037623;28;20478;-92
2021/11/15 11:37:53;;;;;;;56.37;17.77;;;6.50;97.30;;;;;;5031270;28;20447;-92
2021/11/15 11:40:23;;;;;;;60.77;19.50;;;6.50;97.30;;;;;;5040223;28;20429;-92
2021/11/15 11:42:51;;;;;;;47.40;17.57;;;6.50;97.30;;;;;;5039985;28;20411;-92
2021/11/15 11:45:26;;;;;;;56.10;18.07;;;6.50;97.30;;;;;;5039156;28;20431;-93
2021/11/15 11:48:22;;;;;;;54.40;18.57;;;6.50;97.30;;;;;;5040510;28;20402;-92
2021/11/15 11:51:01;;;;;;;53.27;18.20;;;6.50;97.30;;;;;;5038681;28;20411;-92
2021/11/15 11:53:34;;;;;;;49.90;17.13;;;6.50;97.30;;;;;;5037508;28;20969;-92
2021/11/15 11:56:21;;;;;;;53.13;17.97;;;6.50;97.30;;;;;;5037654;28;20467;-93
2021/11/15 11:59:11;;;;;;;56.43;19.03;;;6.50;97.30;;;;;;5037426;28;20506;-92
2021/11/15 12:01:42;;;;;;;59.43;18.87;;;6.50;97.30;;;;;;5030413;28;20419;-92
2021/11/15 12:04:32;;;;;;;55.53;16.57;;;6.50;97.30;;;;;;5037961;28;20419;-92
2021/11/15 12:07:20;;;;;;;57.90;18.40;;;6.50;97.30;;;;;;5038641;28;20410;-92
2021/11/15 12:09:53;;;;;;;51.67;19.90;;;6.50;97.30;;;;;;5038612;28;20930;-91
2021/11/15 12:12:22;;;;;;;55.20;17.93;;;6.60;97.30;;;;;;5039624;28;20467;-92
2021/11/15 12:14:51;;;;;;;53.50;19.23;;;6.60;97.30;;;;;;5038905;28;20431;-92
2021/11/15 12:17:34;;;;;;;53.77;19.33;;;6.60;97.30;;;;;;5039575;28;20538;-93
2021/11/15 12:20:14;;;;;;;57.13;17.90;;;6.60;97.30;;;;;;5022335;28;20395;-92
2021/11/15 12:22:53;;;;;;;60.43;18.33;;;6.60;97.30;;;;;;5037504;28;20426;-92
2021/11/15 12:25:26;;;;;;;53.37;18.07;;;6.60;97.30;;;;;;5021297;28;20439;-93
2021/11/15 12:28:00;;;;;;;59.90;19.73;;;6.60;97.30;;;;;;5037404;28;20415;-92
2021/11/15 12:30:41;;;;;;;55.60;17.40;;;6.60;97.30;;;;;;5037038;28;20490;-92
2021/11/15 12:33:32;;;;;;;54.53;18.43;;;6.60;97.30;;;;;;5021961;28;20443;-92
2021/11/15 12:36:34;;;;;;;56.27;17.13;;;6.60;97.30;;;;;;5037310;28;20446;-92
2021/11/15 12:39:13;;;;;;;47.40;16.87;;;6.50;97.30;;;;;;5035985;28;20443;-92
2021/11/15 12:41:47;;;;;;;51.00;16.80;;;6.50;97.30;;;;;;5038027;28;20399;-92
2021/11/15 12:44:14;;;;;;;53.23;16.67;;;6.50;97.30;;;;;;5038645;28;20415;-92
2021/11/15 12:46:50;;;;;;;51.00;18.37;;;6.50;97.30;;;;;;5038027;28;20496;-92
2021/11/15 12:49:54;;;;;;;50.53;17.87;;;6.50;97.30;;;;;;5037102;28;20399;-92
2021/11/15 12:52:24;;;;;;;59.10;16.90;;;6.40;97.30;;;;;;5035659;28;20474;-92
2021/11/15 12:55:02;;;;;;;60.60;18.27;;;6.40;97.30;;;;;;5036479;28;20426;-92
2021/11/15 12:57:52;;;;;;;51.83;16.87;;;6.50;97.30;;;;;;5035847;28;21302;-92
2021/11/15 13:00:32;;;;;;;46.83;17.10;;;6.50;97.30;;;;;;5036907;28;20415;-92
2021/11/15 13:03:21;;;;;;;59.90;17.13;;;6.50;97.30;;;;;;5037094;28;20414;-92
2021/11/15 13:06:30;;;;;;;42.33;16.00;;;6.50;97.30;;;;;;5037683;28;20446;-92
2021/11/15 13:09:03;;;;;;;46.57;17.67;;;6.50;97.30;;;;;;5029566;28;20429;-92
2021/11/15 13:11:32;;;;;;;48.10;16.00;;;6.50;97.30;;;;;;5038314;28;20419;-92
2021/11/15 13:14:00;;;;;;;63.63;19.80;;;6.50;97.30;;;;;;5037960;28;20411;-92
2021/11/15 13:16:32;;;;;;;58.57;19.30;;;6.50;97.30;;;;;;5037843;28;20461;-92
2021/11/15 13:19:01;;;;;;;55.37;19.80;;;6.60;97.30;;;;;;5037422;28;20416;-92
2021/11/15 13:21:39;;;;;;;54.00;17.97;;;6.60;97.30;;;;;;5040448;28;20415;-92